createdAt,value
2023-05-16T00:00:55.438Z,48.79
2023-05-16T00:02:57.444Z,48.82
2023-05-16T00:04:58.911Z,48.81
2023-05-16T00:07:00.500Z,48.96
2023-05-16T00:09:02.279Z,48.90
2023-05-16T00:11:03.829Z,48.85
2023-05-16T00:13:07.047Z,48.87
2023-05-16T00:15:13.050Z,48.83
2023-05-16T00:17:17.563Z,49.27
2023-05-16T00:19:20.550Z,49.18
2023-05-16T00:21:23.729Z,49.09
2023-05-16T00:23:28.918Z,49.30
2023-05-16T00:25:30.587Z,49.16
2023-05-16T00:27:34.486Z,49.11
2023-05-16T00:29:40.982Z,49.21
2023-05-16T00:31:50.256Z,49.53
2023-05-16T00:33:52.783Z,49.30
2023-05-16T00:35:54.271Z,49.34
2023-05-16T00:37:56.468Z,49.35
2023-05-16T00:39:58.103Z,49.28
2023-05-16T00:41:59.539Z,49.30
2023-05-16T00:44:01.032Z,49.41
2023-05-16T00:46:02.710Z,49.30
2023-05-16T00:48:04.773Z,49.39
2023-05-16T00:50:07.288Z,49.33
2023-05-16T00:52:09.332Z,49.43
2023-05-16T00:54:11.979Z,49.46
2023-05-16T00:56:19.931Z,49.44
2023-05-16T00:58:23.111Z,49.44
2023-05-16T01:00:24.717Z,49.69
2023-05-16T01:02:29.352Z,49.58
2023-05-16T01:04:31.175Z,49.73
2023-05-16T01:06:34.257Z,49.54
2023-05-16T01:08:35.817Z,49.71
2023-05-16T01:11:00.794Z,49.58
2023-05-16T01:13:17.189Z,49.75
2023-05-16T01:15:39.543Z,49.92
2023-05-16T01:17:50.525Z,50.12
2023-05-16T01:20:08.409Z,50.11
2023-05-16T01:22:30.014Z,50.26
2023-05-16T01:24:35.083Z,49.80
2023-05-16T01:26:37.313Z,50.10
2023-05-16T01:28:40.010Z,50.01
2023-05-16T01:30:43.787Z,50.15
2023-05-16T01:32:46.553Z,50.09
2023-05-16T01:34:52.000Z,50.16
2023-05-16T01:37:16.254Z,50.12
2023-05-16T01:39:30.487Z,50.35
2023-05-16T01:41:43.516Z,50.06
2023-05-16T01:43:51.271Z,50.38
2023-05-16T01:45:57.918Z,50.15
2023-05-16T01:48:10.510Z,50.33
2023-05-16T01:50:20.254Z,50.09
2023-05-16T01:52:28.357Z,50.15
2023-05-16T01:54:32.229Z,50.19
2023-05-16T01:56:37.192Z,50.05
2023-05-16T01:58:39.626Z,50.04
2023-05-16T02:00:41.616Z,50.01
2023-05-16T02:02:45.655Z,50.09
2023-05-16T02:04:47.238Z,49.95
2023-05-16T02:06:51.619Z,50.05
2023-05-16T02:08:53.228Z,50.05
2023-05-16T02:10:54.747Z,50.16
2023-05-16T02:12:56.349Z,50.00
2023-05-16T02:14:59.292Z,50.04
2023-05-16T02:17:01.911Z,50.26
2023-05-16T02:19:03.415Z,50.34
2023-05-16T02:21:06.181Z,50.21
2023-05-16T02:23:10.613Z,50.23
2023-05-16T02:25:12.131Z,50.26
2023-05-16T02:27:13.778Z,50.28
2023-05-16T02:29:19.230Z,49.96
2023-05-16T02:31:32.273Z,50.48
2023-05-16T02:33:34.718Z,50.21
2023-05-16T02:35:36.878Z,50.30
2023-05-16T02:37:39.792Z,50.19
2023-05-16T02:39:41.541Z,50.27
2023-05-16T02:41:44.866Z,50.18
2023-05-16T02:43:47.216Z,50.09
2023-05-16T02:45:48.835Z,50.34
2023-05-16T02:47:52.047Z,50.23
2023-05-16T02:49:53.567Z,50.36
2023-05-16T02:51:55.262Z,50.34
2023-05-16T02:53:57.276Z,50.36
2023-05-16T02:55:59.041Z,50.40
2023-05-16T02:58:00.706Z,50.50
2023-05-16T03:00:02.300Z,50.37
2023-05-16T03:02:05.358Z,50.39
2023-05-16T03:04:08.824Z,50.75
2023-05-16T03:06:10.953Z,50.52
2023-05-16T03:08:14.721Z,50.60
2023-05-16T03:10:18.648Z,50.80
2023-05-16T03:12:20.656Z,50.98
2023-05-16T03:14:22.279Z,50.83
2023-05-16T03:16:24.774Z,50.91
2023-05-16T03:18:27.015Z,50.87
2023-05-16T03:20:28.733Z,50.85
2023-05-16T03:22:31.315Z,50.81
2023-05-16T03:24:32.889Z,50.96
2023-05-16T03:26:34.392Z,51.01
2023-05-16T03:28:40.355Z,50.92
2023-05-16T03:30:42.203Z,51.18
2023-05-16T03:32:45.953Z,51.15
2023-05-16T03:34:47.457Z,50.99
2023-05-16T03:36:52.622Z,51.14
2023-05-16T03:38:54.427Z,51.34
2023-05-16T03:40:56.242Z,51.22
2023-05-16T03:42:58.994Z,51.32
2023-05-16T03:45:00.455Z,51.18
2023-05-16T03:47:01.910Z,51.33
2023-05-16T03:49:03.428Z,51.41
2023-05-16T03:51:10.005Z,51.71
2023-05-16T03:53:12.182Z,51.84
2023-05-16T03:55:15.131Z,52.23
2023-05-16T03:57:16.636Z,52.44
2023-05-16T03:59:20.016Z,52.07
2023-05-16T04:01:22.468Z,52.26
2023-05-16T04:03:28.628Z,52.12
2023-05-16T04:05:30.985Z,52.31
2023-05-16T04:07:32.624Z,52.27
2023-05-16T04:09:34.176Z,52.00
2023-05-16T04:11:36.439Z,52.19
2023-05-16T04:13:38.161Z,52.05
2023-05-16T04:15:42.329Z,51.86
2023-05-16T04:17:44.028Z,52.06
2023-05-16T04:19:45.807Z,52.11
2023-05-16T04:21:47.324Z,52.11
2023-05-16T04:23:48.916Z,52.15
2023-05-16T04:25:50.696Z,52.10
2023-05-16T04:27:55.151Z,52.13
2023-05-16T04:29:56.668Z,51.95
2023-05-16T04:31:58.229Z,52.01
2023-05-16T04:33:59.858Z,52.06
2023-05-16T04:36:01.482Z,51.92
2023-05-16T04:38:03.113Z,51.90
2023-05-16T04:40:06.652Z,52.10
2023-05-16T04:42:08.301Z,52.19
2023-05-16T04:44:11.210Z,52.00
2023-05-16T04:46:12.734Z,52.19
2023-05-16T04:48:15.325Z,52.41
2023-05-16T04:50:18.142Z,52.68
2023-05-16T04:52:21.211Z,52.71
2023-05-16T04:54:22.773Z,52.53
2023-05-16T04:56:24.349Z,52.36
2023-05-16T04:58:26.186Z,52.57
2023-05-16T05:00:28.381Z,52.44
2023-05-16T05:02:30.099Z,52.33
2023-05-16T05:04:31.816Z,52.59
2023-05-16T05:06:33.505Z,52.53
2023-05-16T05:08:35.166Z,52.45
2023-05-16T05:10:36.631Z,52.60
2023-05-16T05:12:38.224Z,52.48
2023-05-16T05:14:39.711Z,52.60
2023-05-16T05:16:41.233Z,52.56
2023-05-16T05:18:42.831Z,52.70
2023-05-16T05:20:44.872Z,52.65
2023-05-16T05:22:47.112Z,52.48
2023-05-16T05:24:48.687Z,52.85
2023-05-16T05:26:50.325Z,52.79
2023-05-16T05:29:04.028Z,52.79
2023-05-16T05:31:10.682Z,52.86
2023-05-16T05:33:16.392Z,53.07
2023-05-16T05:35:17.981Z,53.13
2023-05-16T05:37:19.738Z,53.17
2023-05-16T05:39:21.398Z,53.25
2023-05-16T05:41:23.261Z,53.30
2023-05-16T05:43:24.718Z,53.49
2023-05-16T05:45:26.484Z,53.51
2023-05-16T05:47:28.440Z,53.28
2023-05-16T05:49:31.128Z,53.33
2023-05-16T05:51:32.868Z,53.25
2023-05-16T05:53:38.931Z,53.22
2023-05-16T05:55:43.590Z,53.33
2023-05-16T05:57:45.040Z,53.37
2023-05-16T05:59:47.008Z,53.32
2023-05-16T06:01:52.713Z,53.42
2023-05-16T06:03:54.365Z,53.68
2023-05-16T06:05:58.977Z,53.71
2023-05-16T06:08:00.661Z,53.84
2023-05-16T06:10:05.608Z,53.83
2023-05-16T06:12:07.370Z,53.49
2023-05-16T06:14:08.889Z,53.74
2023-05-16T06:16:10.449Z,53.77
2023-05-16T06:18:12.186Z,53.66
2023-05-16T06:20:13.888Z,53.71
2023-05-16T06:22:15.488Z,53.49
2023-05-16T06:24:17.130Z,53.41
2023-05-16T06:26:22.817Z,53.63
2023-05-16T06:28:24.872Z,53.71
2023-05-16T06:30:29.246Z,53.84
2023-05-16T06:32:30.909Z,53.82
2023-05-16T06:34:32.568Z,53.79
2023-05-16T06:36:34.113Z,53.84
2023-05-16T06:38:35.735Z,53.81
2023-05-16T06:40:37.536Z,53.71
2023-05-16T06:42:41.803Z,53.72
2023-05-16T06:44:43.416Z,53.69
2023-05-16T06:46:45.092Z,53.79
2023-05-16T06:49:12.047Z,53.93
2023-05-16T06:51:14.069Z,53.65
2023-05-16T06:53:15.698Z,53.37
2023-05-16T06:55:17.349Z,53.46
2023-05-16T06:57:20.553Z,53.16
2023-05-16T06:59:22.197Z,53.10
2023-05-16T07:01:23.855Z,53.23
2023-05-16T07:03:25.637Z,52.86
2023-05-16T07:05:27.504Z,53.22
2023-05-16T07:07:30.505Z,52.77
2023-05-16T07:09:33.263Z,53.18
2023-05-16T07:11:35.218Z,53.07
2023-05-16T07:13:37.027Z,52.53
2023-05-16T07:15:38.739Z,52.63
2023-05-16T07:17:40.733Z,52.46
2023-05-16T07:19:42.328Z,52.49
2023-05-16T07:21:46.488Z,52.51
2023-05-16T07:23:48.032Z,51.71
2023-05-16T07:25:49.690Z,51.78
2023-05-16T07:27:51.480Z,51.51
2023-05-16T07:29:53.073Z,51.01
2023-05-16T07:31:54.995Z,51.13
2023-05-16T07:33:57.130Z,50.98
2023-05-16T07:36:12.187Z,50.95
2023-05-16T07:38:17.355Z,50.39
2023-05-16T07:40:21.014Z,50.34
2023-05-16T07:42:22.663Z,50.61
2023-05-16T07:44:24.326Z,50.21
2023-05-16T07:46:26.179Z,50.29
2023-05-16T07:48:31.327Z,50.75
2023-05-16T07:50:33.587Z,50.36
2023-05-16T07:52:35.178Z,50.23
2023-05-16T07:54:39.526Z,50.67
2023-05-16T07:56:41.258Z,50.42
2023-05-16T07:58:44.325Z,50.23
2023-05-16T08:00:45.957Z,50.43
2023-05-16T08:02:50.807Z,50.07
2023-05-16T08:04:52.494Z,49.82
2023-05-16T08:06:55.323Z,49.83
2023-05-16T08:08:56.987Z,49.71
2023-05-16T08:10:58.682Z,49.67
2023-05-16T08:13:00.367Z,49.35
2023-05-16T08:15:03.461Z,49.20
2023-05-16T08:17:05.429Z,49.10
2023-05-16T08:19:07.506Z,48.96
2023-05-16T08:21:09.410Z,49.17
2023-05-16T08:23:10.948Z,48.69
2023-05-16T08:25:12.457Z,48.78
2023-05-16T08:27:14.076Z,48.81
2023-05-16T08:29:15.905Z,48.58
2023-05-16T08:31:17.536Z,48.67
2023-05-16T08:33:20.546Z,48.47
2023-05-16T08:35:22.156Z,48.44
2023-05-16T08:37:32.843Z,48.17
2023-05-16T08:39:34.370Z,48.44
2023-05-16T08:41:36.280Z,48.02
2023-05-16T08:43:37.977Z,48.24
2023-05-16T08:45:41.001Z,47.84
2023-05-16T08:47:43.809Z,47.68
2023-05-16T08:49:48.371Z,48.03
2023-05-16T08:51:58.040Z,47.84
2023-05-16T08:54:13.340Z,47.60
2023-05-16T08:56:17.415Z,47.41
2023-05-16T08:58:20.276Z,47.49
2023-05-16T09:00:22.708Z,47.63
2023-05-16T09:02:24.950Z,47.79
2023-05-16T09:04:27.718Z,47.62
2023-05-16T09:06:29.499Z,47.47
2023-05-16T09:08:32.025Z,47.20
2023-05-16T09:10:35.953Z,47.50
2023-05-16T09:12:38.764Z,47.44
2023-05-16T09:14:40.432Z,47.31
2023-05-16T09:16:42.193Z,47.22
2023-05-16T09:18:46.244Z,47.49
2023-05-16T09:20:50.056Z,47.71
2023-05-16T09:22:53.177Z,47.98
2023-05-16T09:24:54.804Z,48.00
2023-05-16T09:26:56.705Z,48.08
2023-05-16T09:29:02.263Z,48.66
2023-05-16T09:31:03.974Z,48.78
2023-05-16T09:33:07.914Z,48.97
2023-05-16T09:35:19.535Z,49.16
2023-05-16T09:37:30.558Z,49.33
2023-05-16T09:39:32.167Z,49.09
2023-05-16T09:41:35.190Z,49.14
2023-05-16T09:43:42.007Z,49.25
2023-05-16T09:45:52.581Z,49.63
2023-05-16T09:48:01.751Z,49.83
2023-05-16T09:50:06.541Z,49.74
2023-05-16T09:52:08.359Z,49.73
2023-05-16T09:54:10.024Z,49.67
2023-05-16T09:56:12.556Z,48.93
2023-05-16T09:58:20.843Z,48.59
2023-05-16T10:00:22.564Z,48.22
2023-05-16T10:02:28.083Z,47.57
2023-05-16T10:04:31.149Z,47.65
2023-05-16T10:06:33.336Z,47.27
2023-05-16T10:08:36.885Z,47.21
2023-05-16T10:10:39.500Z,47.25
2023-05-16T10:12:42.189Z,46.91
2023-05-16T10:14:46.481Z,46.99
2023-05-16T10:16:49.733Z,46.72
2023-05-16T10:18:52.405Z,46.82
2023-05-16T10:20:55.524Z,46.70
2023-05-16T10:22:58.503Z,46.52
2023-05-16T10:25:25.962Z,46.10
2023-05-16T10:27:31.109Z,46.29
2023-05-16T10:29:40.045Z,46.19
2023-05-16T10:31:48.669Z,46.51
2023-05-16T10:33:50.680Z,46.60
2023-05-16T10:35:55.441Z,47.00
2023-05-16T10:37:59.138Z,47.10
2023-05-16T10:40:01.391Z,46.75
2023-05-16T10:42:03.214Z,46.42
2023-05-16T10:44:14.960Z,45.89
2023-05-16T10:46:16.629Z,46.17
2023-05-16T10:48:29.751Z,46.25
2023-05-16T10:50:43.777Z,46.67
2023-05-16T10:52:45.357Z,46.66
2023-05-16T10:54:55.733Z,46.89
2023-05-16T10:57:00.424Z,46.96
2023-05-16T10:59:02.588Z,46.70
2023-05-16T11:01:24.310Z,46.26
2023-05-16T11:03:29.003Z,45.70
2023-05-16T11:05:31.179Z,45.70
2023-05-16T11:07:36.660Z,45.85
2023-05-16T11:09:45.336Z,45.97
2023-05-16T11:11:51.981Z,45.84
2023-05-16T11:13:56.604Z,45.55
2023-05-16T11:16:29.902Z,44.47
2023-05-16T11:18:33.429Z,44.91
2023-05-16T11:20:37.748Z,44.35
2023-05-16T11:22:42.405Z,44.66
2023-05-16T11:24:58.909Z,43.91
2023-05-16T11:27:01.703Z,44.03
2023-05-16T11:29:04.705Z,43.93
2023-05-16T11:31:06.823Z,43.70
2023-05-16T11:33:08.670Z,43.74
2023-05-16T11:35:15.580Z,43.59
2023-05-16T11:37:18.072Z,43.44
2023-05-16T11:39:20.224Z,43.54
2023-05-16T11:41:22.435Z,43.58
2023-05-16T11:43:24.176Z,43.70
2023-05-16T11:45:26.130Z,43.22
2023-05-16T11:47:29.806Z,43.30
2023-05-16T11:49:31.679Z,43.33
2023-05-16T11:51:34.847Z,43.67
2023-05-16T11:53:38.076Z,43.76
2023-05-16T11:55:42.738Z,43.75
2023-05-16T11:57:44.476Z,43.76
2023-05-16T11:59:50.818Z,43.80
2023-05-16T12:01:53.061Z,43.81
2023-05-16T12:03:57.961Z,43.72
2023-05-16T12:06:00.946Z,43.27
2023-05-16T12:08:04.919Z,43.24
2023-05-16T12:10:07.947Z,43.57
2023-05-16T12:12:09.957Z,43.40
2023-05-16T12:14:12.783Z,43.52
2023-05-16T12:16:14.924Z,43.40
2023-05-16T12:18:17.277Z,43.34
2023-05-16T12:20:19.134Z,43.43
2023-05-16T12:22:20.941Z,43.38
2023-05-16T12:24:30.307Z,43.19
2023-05-16T12:26:33.549Z,42.76
2023-05-16T12:28:37.747Z,42.69
2023-05-16T12:30:44.277Z,42.64
2023-05-16T12:32:46.192Z,42.86
2023-05-16T12:34:56.106Z,42.74
2023-05-16T12:37:02.600Z,43.00
2023-05-16T12:39:04.340Z,42.89
2023-05-16T12:41:05.940Z,42.58
2023-05-16T12:43:21.524Z,42.59
2023-05-16T12:45:29.497Z,42.99
2023-05-16T12:47:38.531Z,43.06
2023-05-16T12:49:47.788Z,42.84
2023-05-16T12:51:55.099Z,43.07
2023-05-16T12:54:08.901Z,43.22
2023-05-16T12:56:13.806Z,43.11
2023-05-16T12:58:16.419Z,43.12
2023-05-16T13:00:20.707Z,42.74
2023-05-16T13:02:22.664Z,42.79
2023-05-16T13:04:24.575Z,42.66
2023-05-16T13:06:26.743Z,42.64
2023-05-16T13:08:29.414Z,42.18
2023-05-16T13:10:31.157Z,41.87
2023-05-16T13:12:32.695Z,41.43
2023-05-16T13:14:34.188Z,41.43
2023-05-16T13:16:35.826Z,41.30
2023-05-16T13:18:37.489Z,41.19
2023-05-16T13:20:41.869Z,40.88
2023-05-16T13:22:44.761Z,40.92
2023-05-16T13:24:49.672Z,40.78
2023-05-16T13:26:51.249Z,40.54
2023-05-16T13:28:54.725Z,40.65
2023-05-16T13:31:00.676Z,40.24
2023-05-16T13:33:02.830Z,40.22
2023-05-16T13:35:04.730Z,39.68
2023-05-16T13:37:06.296Z,40.03
2023-05-16T13:39:08.679Z,39.72
2023-05-16T13:41:10.169Z,39.17
2023-05-16T13:43:17.214Z,38.94
2023-05-16T13:45:19.097Z,39.52
2023-05-16T13:47:23.349Z,39.03
2023-05-16T13:49:25.056Z,39.21
2023-05-16T13:51:26.549Z,38.87
2023-05-16T13:53:28.174Z,39.12
2023-05-16T13:55:32.038Z,38.53
2023-05-16T13:57:37.364Z,38.68
2023-05-16T14:01:46.245Z,38.81
2023-05-16T14:03:47.988Z,38.77
2023-05-16T14:05:49.876Z,38.79
2023-05-16T14:07:52.120Z,38.97
2023-05-16T14:09:53.722Z,38.74
2023-05-16T14:11:55.317Z,38.51
2023-05-16T14:13:57.940Z,39.18
2023-05-16T14:15:59.486Z,38.73
2023-05-16T14:18:01.098Z,39.23
2023-05-16T14:20:03.547Z,39.34
2023-05-16T14:22:05.684Z,39.48
2023-05-16T14:24:07.929Z,39.58
2023-05-16T14:26:09.394Z,39.58
2023-05-16T14:28:11.488Z,39.69
2023-05-16T14:30:16.182Z,39.92
2023-05-16T14:32:18.269Z,39.79
2023-05-16T14:34:20.341Z,40.09
2023-05-16T14:36:21.988Z,40.04
2023-05-16T14:38:25.039Z,39.86
2023-05-16T14:40:29.291Z,39.77
2023-05-16T14:42:31.456Z,39.83
2023-05-16T14:44:33.310Z,39.64
2023-05-16T14:46:42.503Z,39.50
2023-05-16T14:48:44.216Z,39.53
2023-05-16T14:50:46.077Z,39.40
2023-05-16T14:52:47.827Z,39.55
2023-05-16T14:54:49.463Z,39.48
2023-05-16T14:56:51.627Z,39.16
2023-05-16T14:58:53.069Z,39.26
2023-05-16T15:00:54.588Z,39.35
2023-05-16T15:02:56.151Z,39.19
2023-05-16T15:05:02.649Z,39.61
2023-05-16T15:07:09.837Z,39.47
2023-05-16T15:09:14.641Z,39.31
2023-05-16T15:11:16.337Z,39.10
2023-05-16T15:13:17.949Z,39.31
2023-05-16T15:15:19.535Z,39.55
2023-05-16T15:17:21.253Z,39.20
2023-05-16T15:19:23.217Z,39.47
2023-05-16T15:21:25.252Z,39.28
2023-05-16T15:23:26.774Z,39.40
2023-05-16T15:25:29.041Z,39.19
2023-05-16T15:27:31.783Z,39.21
2023-05-16T15:29:33.321Z,39.38
2023-05-16T15:31:37.950Z,39.46
2023-05-16T15:33:39.712Z,39.38
2023-05-16T15:35:41.360Z,39.53
2023-05-16T15:37:43.870Z,39.33
2023-05-16T15:39:45.540Z,39.54
2023-05-16T15:42:05.292Z,39.50
2023-05-16T15:44:10.699Z,39.41
2023-05-16T15:46:14.739Z,39.63
2023-05-16T15:48:16.467Z,39.37
2023-05-16T15:50:20.960Z,39.45
2023-05-16T15:52:24.617Z,39.70
2023-05-16T15:54:27.627Z,39.85
2023-05-16T15:56:29.355Z,39.53
2023-05-16T15:58:31.125Z,39.64
2023-05-16T16:00:32.760Z,39.75
2023-05-16T16:02:34.400Z,39.79
2023-05-16T16:04:36.245Z,39.70
2023-05-16T16:06:38.094Z,39.81
2023-05-16T16:08:39.660Z,39.88
2023-05-16T16:10:41.354Z,40.08
2023-05-16T16:12:43.165Z,40.07
2023-05-16T16:14:44.705Z,39.70
2023-05-16T16:16:46.578Z,39.76
2023-05-16T16:18:48.293Z,39.93
2023-05-16T16:20:49.847Z,40.02
2023-05-16T16:22:51.638Z,39.62
2023-05-16T16:24:53.825Z,39.85
2023-05-16T16:26:55.445Z,39.90
2023-05-16T16:28:57.241Z,40.05
2023-05-16T16:30:58.880Z,40.04
2023-05-16T16:33:00.866Z,40.07
2023-05-16T16:35:05.382Z,39.82
2023-05-16T16:37:11.508Z,39.87
2023-05-16T16:39:16.677Z,40.11
2023-05-16T16:41:18.856Z,39.97
2023-05-16T16:43:20.578Z,40.10
2023-05-16T16:45:22.638Z,39.98
2023-05-16T16:47:25.170Z,40.25
2023-05-16T16:49:26.906Z,39.92
2023-05-16T16:51:29.886Z,40.18
2023-05-16T16:53:32.413Z,40.19
2023-05-16T16:55:34.003Z,40.20
2023-05-16T16:57:35.512Z,39.98
2023-05-16T16:59:37.110Z,39.92
2023-05-16T17:01:38.733Z,40.19
2023-05-16T17:03:40.435Z,40.48
2023-05-16T17:05:43.308Z,40.49
2023-05-16T17:07:45.011Z,40.10
2023-05-16T17:09:46.757Z,40.36
2023-05-16T17:11:48.636Z,40.30
2023-05-16T17:13:51.296Z,40.22
2023-05-16T17:15:52.913Z,40.19
2023-05-16T17:17:54.424Z,40.63
2023-05-16T17:19:55.966Z,40.35
2023-05-16T17:21:57.487Z,40.40
2023-05-16T17:23:59.018Z,40.48
2023-05-16T17:26:02.164Z,40.18
2023-05-16T17:28:04.206Z,40.32
2023-05-16T17:30:07.338Z,40.66
2023-05-16T17:32:08.824Z,40.29
2023-05-16T17:34:10.414Z,40.59
2023-05-16T17:36:11.975Z,40.44
2023-05-16T17:38:13.425Z,40.70
2023-05-16T17:40:18.005Z,40.59
2023-05-16T17:42:19.702Z,40.73
2023-05-16T17:44:21.590Z,40.74
2023-05-16T17:46:23.173Z,40.78
2023-05-16T17:48:24.847Z,40.58
2023-05-16T17:50:26.680Z,40.55
2023-05-16T17:52:28.311Z,40.66
2023-05-16T17:54:36.848Z,40.65
2023-05-16T17:56:38.476Z,40.62
2023-05-16T17:58:40.242Z,40.75
2023-05-16T18:00:42.175Z,40.90
2023-05-16T18:02:44.537Z,40.65
2023-05-16T18:04:47.345Z,40.89
2023-05-16T18:06:52.266Z,40.53
2023-05-16T18:08:54.078Z,40.47
2023-05-16T18:10:55.750Z,40.56
2023-05-16T18:12:57.525Z,40.68
2023-05-16T18:15:03.610Z,40.75
2023-05-16T18:17:05.513Z,40.63
2023-05-16T18:19:08.748Z,40.50
2023-05-16T18:21:10.562Z,40.38
2023-05-16T18:23:13.884Z,40.29
2023-05-16T18:25:16.467Z,40.13
2023-05-16T18:27:20.753Z,40.41
2023-05-16T18:29:23.460Z,40.40
2023-05-16T18:31:25.058Z,40.23
2023-05-16T18:33:27.023Z,40.36
2023-05-16T18:35:28.887Z,39.99
2023-05-16T18:37:31.098Z,39.87
2023-05-16T18:39:33.110Z,39.85
2023-05-16T18:41:34.938Z,40.17
2023-05-16T18:43:36.748Z,39.89
2023-05-16T18:45:38.454Z,39.96
2023-05-16T18:47:40.103Z,39.89
2023-05-16T18:49:43.216Z,39.79
2023-05-16T18:51:44.962Z,39.90
2023-05-16T18:53:46.535Z,39.72
2023-05-16T18:55:48.956Z,39.58
2023-05-16T18:57:50.534Z,39.67
2023-05-16T18:59:53.727Z,39.49
2023-05-16T19:01:55.474Z,39.30
2023-05-16T19:03:57.221Z,39.54
2023-05-16T19:05:59.345Z,39.24
2023-05-16T19:08:00.982Z,39.16
2023-05-16T19:10:03.837Z,39.12
2023-05-16T19:12:05.985Z,39.06
2023-05-16T19:14:08.351Z,39.11
2023-05-16T19:16:10.004Z,39.01
2023-05-16T19:18:12.029Z,39.06
2023-05-16T19:20:13.823Z,39.17
2023-05-16T19:22:15.438Z,39.12
2023-05-16T19:24:17.066Z,39.03
2023-05-16T19:26:18.882Z,38.78
2023-05-16T19:28:21.437Z,38.81
2023-05-16T19:30:23.840Z,39.14
2023-05-16T19:32:25.533Z,38.79
2023-05-16T19:34:27.405Z,38.79
2023-05-16T19:36:29.075Z,38.84
2023-05-16T19:38:30.784Z,38.87
2023-05-16T19:40:35.343Z,38.66
2023-05-16T19:42:36.988Z,38.71
2023-05-16T19:44:38.913Z,38.59
2023-05-16T19:46:40.483Z,38.89
2023-05-16T19:48:42.257Z,38.55
2023-05-16T19:50:44.147Z,38.61
2023-05-16T19:52:45.676Z,38.46
2023-05-16T19:54:47.295Z,38.57
2023-05-16T19:56:48.984Z,38.43
2023-05-16T19:58:50.698Z,38.42
2023-05-16T20:00:52.494Z,38.44
2023-05-16T20:02:54.382Z,38.42
2023-05-16T20:04:56.004Z,38.40
2023-05-16T20:06:57.581Z,38.38
2023-05-16T20:08:59.124Z,38.33
2023-05-16T20:11:00.810Z,38.36
2023-05-16T20:13:02.292Z,38.29
2023-05-16T20:15:10.002Z,38.30
2023-05-16T20:17:11.762Z,38.23
2023-05-16T20:19:15.314Z,38.37
2023-05-16T20:21:19.295Z,37.99
2023-05-16T20:23:21.602Z,38.30
2023-05-16T20:25:25.939Z,38.17
2023-05-16T20:27:27.693Z,38.31
2023-05-16T20:29:32.497Z,38.22
2023-05-16T20:31:34.084Z,38.20
2023-05-16T20:33:35.719Z,38.49
2023-05-16T20:35:37.278Z,38.27
2023-05-16T20:37:38.843Z,38.26
2023-05-16T20:39:41.250Z,38.17
2023-05-16T20:41:42.801Z,38.36
2023-05-16T20:43:46.818Z,38.08
2023-05-16T20:45:48.408Z,38.13
2023-05-16T20:47:51.386Z,38.19
2023-05-16T20:49:53.179Z,38.18
2023-05-16T20:51:54.656Z,38.24
2023-05-16T20:53:56.423Z,38.17
2023-05-16T20:55:58.050Z,37.96
2023-05-16T20:58:00.560Z,38.11
2023-05-16T21:00:02.070Z,38.21
2023-05-16T21:02:09.833Z,38.15
2023-05-16T21:04:11.451Z,38.15
2023-05-16T21:06:13.397Z,38.07
2023-05-16T21:08:15.029Z,38.21
2023-05-16T21:10:18.482Z,38.28
2023-05-16T21:12:20.206Z,38.22
2023-05-16T21:14:21.693Z,38.04
2023-05-16T21:16:23.380Z,38.00
2023-05-16T21:18:25.049Z,38.21
2023-05-16T21:20:31.104Z,38.09
2023-05-16T21:22:32.758Z,38.10
2023-05-16T21:24:35.645Z,38.12
2023-05-16T21:26:37.241Z,38.23
2023-05-16T21:28:45.934Z,38.33
2023-05-16T21:31:01.461Z,38.29
2023-05-16T21:33:03.213Z,38.42
2023-05-16T21:35:06.913Z,38.28
2023-05-16T21:37:08.713Z,38.34
2023-05-16T21:39:10.331Z,38.33
2023-05-16T21:41:12.148Z,38.26
2023-05-16T21:43:13.698Z,38.38
2023-05-16T21:45:19.430Z,38.49
2023-05-16T21:47:21.161Z,38.57
2023-05-16T21:49:22.676Z,38.34
2023-05-16T21:51:24.425Z,38.32
2023-05-16T21:53:26.191Z,38.51
2023-05-16T21:55:27.930Z,38.39
2023-05-16T21:57:29.530Z,38.40
2023-05-16T21:59:31.136Z,38.43
2023-05-16T22:01:37.222Z,38.48
2023-05-16T22:03:38.987Z,38.47
2023-05-16T22:05:40.774Z,38.50
2023-05-16T22:07:48.670Z,38.55
2023-05-16T22:09:55.877Z,38.71
2023-05-16T22:11:57.456Z,38.58
2023-05-16T22:13:59.092Z,38.60
2023-05-16T22:16:04.455Z,38.47
2023-05-16T22:18:09.924Z,38.54
2023-05-16T22:20:11.765Z,38.84
2023-05-16T22:22:13.312Z,38.97
2023-05-16T22:24:14.926Z,38.82
2023-05-16T22:26:16.555Z,38.80
2023-05-16T22:28:22.735Z,38.67
2023-05-16T22:30:24.244Z,39.05
2023-05-16T22:32:26.341Z,38.98
2023-05-16T22:34:29.189Z,38.90
2023-05-16T22:36:31.301Z,38.75
2023-05-16T22:38:32.971Z,38.89
2023-05-16T22:40:36.992Z,38.83
2023-05-16T22:42:41.723Z,39.06
2023-05-16T22:44:43.363Z,38.77
2023-05-16T22:46:45.233Z,39.23
2023-05-16T22:48:46.969Z,38.86
2023-05-16T22:50:48.700Z,39.02
2023-05-16T22:52:50.333Z,39.13
2023-05-16T22:54:51.995Z,39.16
2023-05-16T22:56:54.766Z,39.09
2023-05-16T22:58:56.458Z,39.13
2023-05-16T23:01:02.879Z,39.27
2023-05-16T23:03:04.778Z,39.22
2023-05-16T23:05:09.716Z,38.97
2023-05-16T23:07:14.082Z,39.14
2023-05-16T23:09:15.734Z,39.24
2023-05-16T23:11:17.447Z,39.17
2023-05-16T23:13:19.079Z,39.12
2023-05-16T23:15:20.740Z,39.17
2023-05-16T23:17:22.602Z,39.42
2023-05-16T23:19:24.221Z,39.34
2023-05-16T23:21:25.864Z,39.42
2023-05-16T23:23:27.354Z,39.20
2023-05-16T23:25:29.254Z,39.56
2023-05-16T23:27:34.916Z,39.45
2023-05-16T23:29:36.533Z,39.39
2023-05-16T23:31:38.060Z,39.51
2023-05-16T23:33:39.679Z,39.43
2023-05-16T23:35:43.475Z,39.37
2023-05-16T23:37:45.079Z,39.39
2023-05-16T23:39:46.621Z,39.47
2023-05-16T23:41:48.212Z,39.60
2023-05-16T23:43:49.987Z,39.58
2023-05-16T23:45:51.601Z,39.52
2023-05-16T23:47:53.276Z,39.60
2023-05-16T23:49:54.935Z,39.85
2023-05-16T23:51:58.171Z,39.70
2023-05-16T23:53:59.981Z,40.09
2023-05-16T23:56:01.650Z,39.74
2023-05-16T23:58:03.920Z,39.69
